sensor_id;sensor_type;location;lat;lon;timestamp;temperature;humidity
25554;DHT22;13446;50.926;5.332;2023-05-14T00:02:20;16.50;99.90
25554;DHT22;13446;50.926;5.332;2023-05-14T00:04:45;16.40;99.90
25554;DHT22;13446;50.926;5.332;2023-05-14T00:07:11;16.40;99.90
25554;DHT22;13446;50.926;5.332;2023-05-14T00:09:36;16.40;99.90
25554;DHT22;13446;50.926;5.332;2023-05-14T00:12:02;16.30;99.90
25554;DHT22;13446;50.926;5.332;2023-05-14T00:14:27;16.30;99.90
25554;DHT22;13446;50.926;5.332;2023-05-14T00:16:53;16.30;99.90
25554;DHT22;13446;50.926;5.332;2023-05-14T00:19:19;16.20;99.90
25554;DHT22;13446;50.926;5.332;2023-05-14T00:21:45;16.10;99.90
25554;DHT22;13446;50.926;5.332;2023-05-14T00:24:11;16.10;99.90
25554;DHT22;13446;50.926;5.332;2023-05-14T00:26:37;15.90;99.90
25554;DHT22;13446;50.926;5.332;2023-05-14T00:29:02;15.70;99.90
25554;DHT22;13446;50.926;5.332;2023-05-14T00:31:28;15.70;99.90
25554;DHT22;13446;50.926;5.332;2023-05-14T00:33:54;15.70;99.90
25554;DHT22;13446;50.926;5.332;2023-05-14T00:36:19;15.80;99.90
25554;DHT22;13446;50.926;5.332;2023-05-14T00:38:45;15.60;99.90
25554;DHT22;13446;50.926;5.332;2023-05-14T00:41:11;15.70;99.90
25554;DHT22;13446;50.926;5.332;2023-05-14T00:43:36;15.60;99.90
25554;DHT22;13446;50.926;5.332;2023-05-14T00:46:02;15.50;99.90
25554;DHT22;13446;50.926;5.332;2023-05-14T00:48:28;15.60;99.90
25554;DHT22;13446;50.926;5.332;2023-05-14T00:50:54;15.50;99.90
25554;DHT22;13446;50.926;5.332;2023-05-14T00:53:20;15.60;99.90
25554;DHT22;13446;50.926;5.332;2023-05-14T00:55:45;15.60;99.90
25554;DHT22;13446;50.926;5.332;2023-05-14T00:58:11;15.60;99.90
25554;DHT22;13446;50.926;5.332;2023-05-14T01:00:37;15.70;99.90
25554;DHT22;13446;50.926;5.332;2023-05-14T01:03:03;15.70;99.90
25554;DHT22;13446;50.926;5.332;2023-05-14T01:05:32;15.70;99.90
25554;DHT22;13446;50.926;5.332;2023-05-14T01:08:03;15.50;99.90
25554;DHT22;13446;50.926;5.332;2023-05-14T01:13:22;15.20;99.90
25554;DHT22;13446;50.926;5.332;2023-05-14T01:15:48;15.20;99.90
25554;DHT22;13446;50.926;5.332;2023-05-14T01:18:16;15.30;99.90
25554;DHT22;13446;50.926;5.332;2023-05-14T01:20:43;15.40;99.90
25554;DHT22;13446;50.926;5.332;2023-05-14T01:23:09;15.40;99.90
25554;DHT22;13446;50.926;5.332;2023-05-14T01:25:35;15.30;99.90
25554;DHT22;13446;50.926;5.332;2023-05-14T01:28:05;15.30;99.90
25554;DHT22;13446;50.926;5.332;2023-05-14T01:30:38;15.20;99.90
25554;DHT22;13446;50.926;5.332;2023-05-14T01:33:05;15.30;99.90
25554;DHT22;13446;50.926;5.332;2023-05-14T01:35:31;15.20;99.90
25554;DHT22;13446;50.926;5.332;2023-05-14T01:37:58;15.20;99.90
25554;DHT22;13446;50.926;5.332;2023-05-14T01:40:25;15.10;99.90
25554;DHT22;13446;50.926;5.332;2023-05-14T01:42:52;15.10;99.90
25554;DHT22;13446;50.926;5.332;2023-05-14T01:45:21;15.20;99.90
25554;DHT22;13446;50.926;5.332;2023-05-14T01:47:47;15.20;99.90
25554;DHT22;13446;50.926;5.332;2023-05-14T01:50:12;15.20;99.90
25554;DHT22;13446;50.926;5.332;2023-05-14T01:52:38;15.10;99.90
25554;DHT22;13446;50.926;5.332;2023-05-14T01:55:04;15.10;99.90
25554;DHT22;13446;50.926;5.332;2023-05-14T01:57:30;14.90;99.90
25554;DHT22;13446;50.926;5.332;2023-05-14T01:59:55;14.80;99.90
25554;DHT22;13446;50.926;5.332;2023-05-14T02:02:21;14.80;99.90
25554;DHT22;13446;50.926;5.332;2023-05-14T02:04:47;14.70;99.90
25554;DHT22;13446;50.926;5.332;2023-05-14T02:07:12;14.70;99.90
25554;DHT22;13446;50.926;5.332;2023-05-14T02:09:38;14.80;99.90
25554;DHT22;13446;50.926;5.332;2023-05-14T02:12:05;14.70;99.90
25554;DHT22;13446;50.926;5.332;2023-05-14T02:14:31;14.60;99.90
25554;DHT22;13446;50.926;5.332;2023-05-14T02:16:56;14.60;99.90
25554;DHT22;13446;50.926;5.332;2023-05-14T02:19:22;14.50;99.90
25554;DHT22;13446;50.926;5.332;2023-05-14T02:21:48;14.50;99.90
25554;DHT22;13446;50.926;5.332;2023-05-14T02:24:14;14.40;99.90
25554;DHT22;13446;50.926;5.332;2023-05-14T02:26:39;14.30;99.90
25554;DHT22;13446;50.926;5.332;2023-05-14T02:29:06;14.30;99.90
25554;DHT22;13446;50.926;5.332;2023-05-14T02:31:32;14.30;99.90
25554;DHT22;13446;50.926;5.332;2023-05-14T02:33:59;14.30;99.90
25554;DHT22;13446;50.926;5.332;2023-05-14T02:36:25;14.40;99.90
25554;DHT22;13446;50.926;5.332;2023-05-14T02:38:51;14.40;99.90
25554;DHT22;13446;50.926;5.332;2023-05-14T02:41:16;14.30;99.90
25554;DHT22;13446;50.926;5.332;2023-05-14T02:43:42;14.40;99.90
25554;DHT22;13446;50.926;5.332;2023-05-14T02:46:08;14.20;99.90
25554;DHT22;13446;50.926;5.332;2023-05-14T02:48:33;14.00;99.90
25554;DHT22;13446;50.926;5.332;2023-05-14T02:50:59;14.00;99.90
25554;DHT22;13446;50.926;5.332;2023-05-14T02:53:25;14.00;99.90
25554;DHT22;13446;50.926;5.332;2023-05-14T02:55:50;14.00;99.90
25554;DHT22;13446;50.926;5.332;2023-05-14T02:58:16;14.00;99.90
25554;DHT22;13446;50.926;5.332;2023-05-14T03:00:43;14.00;99.90
25554;DHT22;13446;50.926;5.332;2023-05-14T03:03:08;14.10;99.90
25554;DHT22;13446;50.926;5.332;2023-05-14T03:05:34;14.00;99.90
25554;DHT22;13446;50.926;5.332;2023-05-14T03:08:00;13.90;99.90
25554;DHT22;13446;50.926;5.332;2023-05-14T03:10:25;13.90;99.90
25554;DHT22;13446;50.926;5.332;2023-05-14T03:12:51;13.90;99.90
25554;DHT22;13446;50.926;5.332;2023-05-14T03:15:16;14.00;99.90
25554;DHT22;13446;50.926;5.332;2023-05-14T03:17:42;13.90;99.90
25554;DHT22;13446;50.926;5.332;2023-05-14T03:20:08;13.70;99.90
25554;DHT22;13446;50.926;5.332;2023-05-14T03:22:34;13.50;99.90
25554;DHT22;13446;50.926;5.332;2023-05-14T03:24:59;13.70;99.90
25554;DHT22;13446;50.926;5.332;2023-05-14T03:27:25;13.70;99.90
25554;DHT22;13446;50.926;5.332;2023-05-14T03:29:51;13.70;99.90
25554;DHT22;13446;50.926;5.332;2023-05-14T03:32:16;13.70;99.90
25554;DHT22;13446;50.926;5.332;2023-05-14T03:34:43;13.70;99.90
25554;DHT22;13446;50.926;5.332;2023-05-14T03:37:09;13.60;99.90
25554;DHT22;13446;50.926;5.332;2023-05-14T03:39:34;13.70;99.90
25554;DHT22;13446;50.926;5.332;2023-05-14T03:42:00;13.80;99.90
25554;DHT22;13446;50.926;5.332;2023-05-14T03:44:26;13.80;99.90
25554;DHT22;13446;50.926;5.332;2023-05-14T03:46:51;13.80;99.90
25554;DHT22;13446;50.926;5.332;2023-05-14T03:49:17;13.70;99.90
25554;DHT22;13446;50.926;5.332;2023-05-14T03:51:43;13.90;99.90
25554;DHT22;13446;50.926;5.332;2023-05-14T03:54:09;13.80;99.90
25554;DHT22;13446;50.926;5.332;2023-05-14T03:56:34;13.80;99.90
25554;DHT22;13446;50.926;5.332;2023-05-14T03:59:01;13.70;99.90
25554;DHT22;13446;50.926;5.332;2023-05-14T04:01:26;13.70;99.90
25554;DHT22;13446;50.926;5.332;2023-05-14T04:03:52;13.70;99.90
25554;DHT22;13446;50.926;5.332;2023-05-14T04:06:18;13.60;99.90
25554;DHT22;13446;50.926;5.332;2023-05-14T04:08:43;13.70;99.90
25554;DHT22;13446;50.926;5.332;2023-05-14T04:11:09;13.80;99.90
25554;DHT22;13446;50.926;5.332;2023-05-14T04:13:35;13.70;99.90
25554;DHT22;13446;50.926;5.332;2023-05-14T04:16:00;13.70;99.90
25554;DHT22;13446;50.926;5.332;2023-05-14T04:18:26;13.70;99.90
25554;DHT22;13446;50.926;5.332;2023-05-14T04:20:51;13.60;99.90
25554;DHT22;13446;50.926;5.332;2023-05-14T04:23:17;13.60;99.90
25554;DHT22;13446;50.926;5.332;2023-05-14T04:25:43;13.70;99.90
25554;DHT22;13446;50.926;5.332;2023-05-14T04:28:08;13.70;99.90
25554;DHT22;13446;50.926;5.332;2023-05-14T04:30:34;13.80;99.90
25554;DHT22;13446;50.926;5.332;2023-05-14T04:32:59;13.80;99.90
25554;DHT22;13446;50.926;5.332;2023-05-14T04:35:25;13.90;99.90
25554;DHT22;13446;50.926;5.332;2023-05-14T04:37:51;13.90;99.90
25554;DHT22;13446;50.926;5.332;2023-05-14T04:40:17;13.90;99.90
25554;DHT22;13446;50.926;5.332;2023-05-14T04:42:43;14.00;99.90
25554;DHT22;13446;50.926;5.332;2023-05-14T04:45:08;14.00;99.90
25554;DHT22;13446;50.926;5.332;2023-05-14T04:47:34;14.10;99.90
25554;DHT22;13446;50.926;5.332;2023-05-14T04:50:00;14.10;99.90
25554;DHT22;13446;50.926;5.332;2023-05-14T04:52:26;14.20;99.90
25554;DHT22;13446;50.926;5.332;2023-05-14T04:54:51;14.10;99.90
25554;DHT22;13446;50.926;5.332;2023-05-14T04:57:17;14.10;99.90
25554;DHT22;13446;50.926;5.332;2023-05-14T04:59:43;14.20;99.90
25554;DHT22;13446;50.926;5.332;2023-05-14T05:02:08;14.40;99.90
25554;DHT22;13446;50.926;5.332;2023-05-14T05:04:34;14.30;99.90
25554;DHT22;13446;50.926;5.332;2023-05-14T05:06:59;14.40;99.90
25554;DHT22;13446;50.926;5.332;2023-05-14T05:09:25;14.60;99.90
25554;DHT22;13446;50.926;5.332;2023-05-14T05:11:50;14.60;99.90
25554;DHT22;13446;50.926;5.332;2023-05-14T05:14:16;14.80;99.90
25554;DHT22;13446;50.926;5.332;2023-05-14T05:16:42;15.10;99.90
25554;DHT22;13446;50.926;5.332;2023-05-14T05:19:07;15.40;99.90
25554;DHT22;13446;50.926;5.332;2023-05-14T05:21:33;15.70;99.90
25554;DHT22;13446;50.926;5.332;2023-05-14T05:23:58;15.90;99.90
25554;DHT22;13446;50.926;5.332;2023-05-14T05:26:25;16.30;99.90
25554;DHT22;13446;50.926;5.332;2023-05-14T05:28:51;16.20;99.90
25554;DHT22;13446;50.926;5.332;2023-05-14T05:31:16;16.60;99.90
25554;DHT22;13446;50.926;5.332;2023-05-14T05:33:42;16.90;99.90
25554;DHT22;13446;50.926;5.332;2023-05-14T05:36:08;17.00;99.90
25554;DHT22;13446;50.926;5.332;2023-05-14T05:38:33;17.20;99.90
25554;DHT22;13446;50.926;5.332;2023-05-14T05:40:59;17.60;99.90
25554;DHT22;13446;50.926;5.332;2023-05-14T05:43:25;18.00;99.90
25554;DHT22;13446;50.926;5.332;2023-05-14T05:45:52;18.40;99.90
25554;DHT22;13446;50.926;5.332;2023-05-14T05:48:18;18.70;99.90
25554;DHT22;13446;50.926;5.332;2023-05-14T05:50:45;19.00;99.90
25554;DHT22;13446;50.926;5.332;2023-05-14T05:53:11;19.50;99.90
25554;DHT22;13446;50.926;5.332;2023-05-14T05:55:37;20.00;99.90
25554;DHT22;13446;50.926;5.332;2023-05-14T05:58:03;20.50;99.90
25554;DHT22;13446;50.926;5.332;2023-05-14T06:00:29;20.90;99.90
25554;DHT22;13446;50.926;5.332;2023-05-14T06:02:55;21.00;99.90
25554;DHT22;13446;50.926;5.332;2023-05-14T06:05:21;21.40;99.90
25554;DHT22;13446;50.926;5.332;2023-05-14T06:07:46;21.30;99.90
25554;DHT22;13446;50.926;5.332;2023-05-14T06:10:12;21.60;99.90
25554;DHT22;13446;50.926;5.332;2023-05-14T06:12:53;21.60;99.90
25554;DHT22;13446;50.926;5.332;2023-05-14T06:15:19;21.70;99.90
25554;DHT22;13446;50.926;5.332;2023-05-14T06:17:45;21.50;99.90
25554;DHT22;13446;50.926;5.332;2023-05-14T06:20:11;21.50;99.90
25554;DHT22;13446;50.926;5.332;2023-05-14T06:22:36;21.60;99.90
25554;DHT22;13446;50.926;5.332;2023-05-14T06:25:02;21.60;99.90
25554;DHT22;13446;50.926;5.332;2023-05-14T06:27:28;21.40;99.90
25554;DHT22;13446;50.926;5.332;2023-05-14T06:29:53;21.70;99.90
25554;DHT22;13446;50.926;5.332;2023-05-14T06:32:19;21.60;99.90
25554;DHT22;13446;50.926;5.332;2023-05-14T06:34:44;21.70;99.90
25554;DHT22;13446;50.926;5.332;2023-05-14T06:37:10;22.00;99.90
25554;DHT22;13446;50.926;5.332;2023-05-14T06:39:36;22.10;99.90
25554;DHT22;13446;50.926;5.332;2023-05-14T06:42:02;21.70;99.90
25554;DHT22;13446;50.926;5.332;2023-05-14T06:44:28;22.00;99.90
25554;DHT22;13446;50.926;5.332;2023-05-14T06:46:53;21.80;99.90
25554;DHT22;13446;50.926;5.332;2023-05-14T06:49:19;22.20;99.90
25554;DHT22;13446;50.926;5.332;2023-05-14T06:51:45;22.50;99.90
25554;DHT22;13446;50.926;5.332;2023-05-14T06:54:11;23.10;99.90
25554;DHT22;13446;50.926;5.332;2023-05-14T06:56:36;23.70;99.90
25554;DHT22;13446;50.926;5.332;2023-05-14T06:59:02;24.10;99.90
25554;DHT22;13446;50.926;5.332;2023-05-14T07:01:27;24.60;99.90
25554;DHT22;13446;50.926;5.332;2023-05-14T07:03:53;25.60;99.90
25554;DHT22;13446;50.926;5.332;2023-05-14T07:06:18;26.50;97.90
25554;DHT22;13446;50.926;5.332;2023-05-14T07:08:44;27.10;94.60
25554;DHT22;13446;50.926;5.332;2023-05-14T07:11:12;27.20;93.20
25554;DHT22;13446;50.926;5.332;2023-05-14T07:13:38;27.80;93.50
25554;DHT22;13446;50.926;5.332;2023-05-14T07:16:04;27.40;91.80
25554;DHT22;13446;50.926;5.332;2023-05-14T07:18:30;26.60;93.10
25554;DHT22;13446;50.926;5.332;2023-05-14T07:20:55;27.00;93.00
25554;DHT22;13446;50.926;5.332;2023-05-14T07:23:21;26.80;92.40
25554;DHT22;13446;50.926;5.332;2023-05-14T07:25:47;27.40;92.00
25554;DHT22;13446;50.926;5.332;2023-05-14T07:28:12;27.60;90.80
25554;DHT22;13446;50.926;5.332;2023-05-14T07:30:38;27.70;90.40
25554;DHT22;13446;50.926;5.332;2023-05-14T07:33:03;28.00;88.90
25554;DHT22;13446;50.926;5.332;2023-05-14T07:35:29;27.90;88.90
25554;DHT22;13446;50.926;5.332;2023-05-14T07:37:55;27.40;90.00
25554;DHT22;13446;50.926;5.332;2023-05-14T07:40:20;27.00;91.20
25554;DHT22;13446;50.926;5.332;2023-05-14T07:42:46;26.50;91.50
25554;DHT22;13446;50.926;5.332;2023-05-14T07:45:12;26.30;92.70
25554;DHT22;13446;50.926;5.332;2023-05-14T07:47:38;25.90;93.40
25554;DHT22;13446;50.926;5.332;2023-05-14T07:50:04;26.30;92.60
25554;DHT22;13446;50.926;5.332;2023-05-14T07:52:29;25.80;93.90
25554;DHT22;13446;50.926;5.332;2023-05-14T07:54:55;25.60;93.30
25554;DHT22;13446;50.926;5.332;2023-05-14T07:57:20;25.70;94.00
25554;DHT22;13446;50.926;5.332;2023-05-14T07:59:46;25.50;93.80
25554;DHT22;13446;50.926;5.332;2023-05-14T08:02:12;25.10;94.20
25554;DHT22;13446;50.926;5.332;2023-05-14T08:04:40;25.20;95.50
25554;DHT22;13446;50.926;5.332;2023-05-14T08:07:05;26.20;94.90
25554;DHT22;13446;50.926;5.332;2023-05-14T08:09:33;27.00;92.40
25554;DHT22;13446;50.926;5.332;2023-05-14T08:11:58;27.80;90.90
25554;DHT22;13446;50.926;5.332;2023-05-14T08:14:24;27.30;87.80
25554;DHT22;13446;50.926;5.332;2023-05-14T08:16:49;27.40;90.50
25554;DHT22;13446;50.926;5.332;2023-05-14T08:19:15;27.80;88.80
25554;DHT22;13446;50.926;5.332;2023-05-14T08:21:41;28.20;86.70
25554;DHT22;13446;50.926;5.332;2023-05-14T08:24:07;28.50;85.00
25554;DHT22;13446;50.926;5.332;2023-05-14T08:26:32;29.30;81.50
25554;DHT22;13446;50.926;5.332;2023-05-14T08:28:58;29.40;78.40
25554;DHT22;13446;50.926;5.332;2023-05-14T08:31:23;30.90;75.30
25554;DHT22;13446;50.926;5.332;2023-05-14T08:33:49;31.70;68.00
25554;DHT22;13446;50.926;5.332;2023-05-14T08:36:15;32.50;65.70
25554;DHT22;13446;50.926;5.332;2023-05-14T08:38:43;32.50;63.10
25554;DHT22;13446;50.926;5.332;2023-05-14T08:41:09;32.20;61.30
25554;DHT22;13446;50.926;5.332;2023-05-14T08:43:41;32.50;60.20
25554;DHT22;13446;50.926;5.332;2023-05-14T08:46:09;32.90;58.70
25554;DHT22;13446;50.926;5.332;2023-05-14T08:48:35;33.60;56.60
25554;DHT22;13446;50.926;5.332;2023-05-14T08:51:01;33.50;55.30
25554;DHT22;13446;50.926;5.332;2023-05-14T08:53:27;32.10;57.40
25554;DHT22;13446;50.926;5.332;2023-05-14T08:55:53;32.40;57.40
25554;DHT22;13446;50.926;5.332;2023-05-14T08:58:18;33.30;56.70
25554;DHT22;13446;50.926;5.332;2023-05-14T09:00:45;34.10;55.40
25554;DHT22;13446;50.926;5.332;2023-05-14T09:03:10;33.50;53.80
25554;DHT22;13446;50.926;5.332;2023-05-14T09:05:36;32.30;56.30
25554;DHT22;13446;50.926;5.332;2023-05-14T09:08:02;33.60;55.90
25554;DHT22;13446;50.926;5.332;2023-05-14T09:10:28;33.90;53.80
25554;DHT22;13446;50.926;5.332;2023-05-14T09:12:53;34.80;53.00
25554;DHT22;13446;50.926;5.332;2023-05-14T09:15:19;35.60;50.70
25554;DHT22;13446;50.926;5.332;2023-05-14T09:17:44;36.00;48.80
25554;DHT22;13446;50.926;5.332;2023-05-14T09:20:12;35.90;48.80
25554;DHT22;13446;50.926;5.332;2023-05-14T09:22:38;36.00;47.10
25554;DHT22;13446;50.926;5.332;2023-05-14T09:25:08;36.20;48.00
25554;DHT22;13446;50.926;5.332;2023-05-14T09:27:34;36.80;46.00
25554;DHT22;13446;50.926;5.332;2023-05-14T09:30:04;36.40;45.80
25554;DHT22;13446;50.926;5.332;2023-05-14T09:32:42;35.80;46.90
25554;DHT22;13446;50.926;5.332;2023-05-14T09:35:19;36.50;46.10
25554;DHT22;13446;50.926;5.332;2023-05-14T09:37:46;35.90;44.60
25554;DHT22;13446;50.926;5.332;2023-05-14T09:40:12;36.30;46.40
25554;DHT22;13446;50.926;5.332;2023-05-14T09:42:38;36.20;45.40
25554;DHT22;13446;50.926;5.332;2023-05-14T09:45:05;35.80;47.10
25554;DHT22;13446;50.926;5.332;2023-05-14T09:47:31;36.60;45.30
25554;DHT22;13446;50.926;5.332;2023-05-14T09:49:57;36.90;43.80
25554;DHT22;13446;50.926;5.332;2023-05-14T09:52:22;36.80;44.40
25554;DHT22;13446;50.926;5.332;2023-05-14T09:54:49;36.20;44.50
25554;DHT22;13446;50.926;5.332;2023-05-14T09:57:16;36.90;43.50
25554;DHT22;13446;50.926;5.332;2023-05-14T09:59:41;37.10;43.70
25554;DHT22;13446;50.926;5.332;2023-05-14T10:02:09;36.90;43.60
25554;DHT22;13446;50.926;5.332;2023-05-14T10:04:37;37.00;42.60
25554;DHT22;13446;50.926;5.332;2023-05-14T10:07:03;36.80;42.60
25554;DHT22;13446;50.926;5.332;2023-05-14T10:09:29;37.30;44.20
25554;DHT22;13446;50.926;5.332;2023-05-14T10:11:56;37.60;41.30
25554;DHT22;13446;50.926;5.332;2023-05-14T10:14:28;37.60;41.00
25554;DHT22;13446;50.926;5.332;2023-05-14T10:16:57;37.40;42.30
25554;DHT22;13446;50.926;5.332;2023-05-14T10:19:24;37.60;40.60
25554;DHT22;13446;50.926;5.332;2023-05-14T10:21:55;37.60;41.50
25554;DHT22;13446;50.926;5.332;2023-05-14T10:24:20;35.50;42.70
25554;DHT22;13446;50.926;5.332;2023-05-14T10:26:46;34.60;46.10
25554;DHT22;13446;50.926;5.332;2023-05-14T10:29:12;35.00;44.10
25554;DHT22;13446;50.926;5.332;2023-05-14T10:31:50;35.50;44.20
25554;DHT22;13446;50.926;5.332;2023-05-14T10:37:00;37.30;43.10
25554;DHT22;13446;50.926;5.332;2023-05-14T10:42:10;36.50;41.30
25554;DHT22;13446;50.926;5.332;2023-05-14T10:44:36;36.20;41.70
25554;DHT22;13446;50.926;5.332;2023-05-14T10:47:05;36.20;41.90
25554;DHT22;13446;50.926;5.332;2023-05-14T10:49:32;36.60;41.60
25554;DHT22;13446;50.926;5.332;2023-05-14T10:51:58;36.50;41.10
25554;DHT22;13446;50.926;5.332;2023-05-14T10:54:26;36.70;40.40
25554;DHT22;13446;50.926;5.332;2023-05-14T10:56:51;37.10;41.80
25554;DHT22;13446;50.926;5.332;2023-05-14T10:59:17;37.10;40.90
25554;DHT22;13446;50.926;5.332;2023-05-14T11:01:44;37.00;40.50
25554;DHT22;13446;50.926;5.332;2023-05-14T11:04:16;36.50;40.90
25554;DHT22;13446;50.926;5.332;2023-05-14T11:06:42;36.90;42.60
25554;DHT22;13446;50.926;5.332;2023-05-14T11:09:09;37.60;39.60
25554;DHT22;13446;50.926;5.332;2023-05-14T11:11:36;37.90;38.70
25554;DHT22;13446;50.926;5.332;2023-05-14T11:14:01;38.30;38.80
25554;DHT22;13446;50.926;5.332;2023-05-14T11:16:27;38.30;38.80
25554;DHT22;13446;50.926;5.332;2023-05-14T11:19:01;37.90;38.20
25554;DHT22;13446;50.926;5.332;2023-05-14T11:21:34;37.60;38.30
25554;DHT22;13446;50.926;5.332;2023-05-14T11:24:00;36.60;39.70
25554;DHT22;13446;50.926;5.332;2023-05-14T11:26:25;35.60;40.20
25554;DHT22;13446;50.926;5.332;2023-05-14T11:28:51;35.30;39.80
25554;DHT22;13446;50.926;5.332;2023-05-14T11:31:17;34.40;40.20
25554;DHT22;13446;50.926;5.332;2023-05-14T11:33:43;33.40;41.10
25554;DHT22;13446;50.926;5.332;2023-05-14T11:36:11;32.70;43.20
25554;DHT22;13446;50.926;5.332;2023-05-14T11:38:47;31.80;45.40
25554;DHT22;13446;50.926;5.332;2023-05-14T11:41:13;32.60;44.50
25554;DHT22;13446;50.926;5.332;2023-05-14T11:43:38;34.10;42.70
25554;DHT22;13446;50.926;5.332;2023-05-14T11:46:04;35.00;41.10
25554;DHT22;13446;50.926;5.332;2023-05-14T11:48:30;35.10;41.50
25554;DHT22;13446;50.926;5.332;2023-05-14T11:50:56;35.60;41.40
25554;DHT22;13446;50.926;5.332;2023-05-14T11:53:26;35.30;40.30
25554;DHT22;13446;50.926;5.332;2023-05-14T11:55:52;35.10;39.80
25554;DHT22;13446;50.926;5.332;2023-05-14T11:58:24;35.00;39.80
25554;DHT22;13446;50.926;5.332;2023-05-14T12:00:51;35.00;40.90
25554;DHT22;13446;50.926;5.332;2023-05-14T12:03:20;35.70;39.80
25554;DHT22;13446;50.926;5.332;2023-05-14T12:06:01;35.40;41.20
25554;DHT22;13446;50.926;5.332;2023-05-14T12:08:31;34.60;41.20
25554;DHT22;13446;50.926;5.332;2023-05-14T12:10:57;33.90;43.10
25554;DHT22;13446;50.926;5.332;2023-05-14T12:13:26;34.80;42.40
25554;DHT22;13446;50.926;5.332;2023-05-14T12:15:53;35.10;41.70
25554;DHT22;13446;50.926;5.332;2023-05-14T12:18:39;35.90;40.20
25554;DHT22;13446;50.926;5.332;2023-05-14T12:21:05;36.10;40.00
25554;DHT22;13446;50.926;5.332;2023-05-14T12:23:34;35.30;39.70
25554;DHT22;13446;50.926;5.332;2023-05-14T12:26:04;34.60;41.10
25554;DHT22;13446;50.926;5.332;2023-05-14T12:28:30;33.40;41.80
25554;DHT22;13446;50.926;5.332;2023-05-14T12:30:56;32.30;42.30
25554;DHT22;13446;50.926;5.332;2023-05-14T12:33:22;31.60;45.10
25554;DHT22;13446;50.926;5.332;2023-05-14T12:35:48;30.90;46.40
25554;DHT22;13446;50.926;5.332;2023-05-14T12:38:14;30.30;47.20
25554;DHT22;13446;50.926;5.332;2023-05-14T12:40:40;29.80;47.60
25554;DHT22;13446;50.926;5.332;2023-05-14T12:43:06;28.70;49.10
25554;DHT22;13446;50.926;5.332;2023-05-14T12:45:31;28.30;51.40
25554;DHT22;13446;50.926;5.332;2023-05-14T12:47:57;28.00;52.60
25554;DHT22;13446;50.926;5.332;2023-05-14T12:50:22;27.60;53.60
25554;DHT22;13446;50.926;5.332;2023-05-14T12:52:48;27.50;52.70
25554;DHT22;13446;50.926;5.332;2023-05-14T12:55:13;27.30;52.70
25554;DHT22;13446;50.926;5.332;2023-05-14T12:57:39;27.20;52.90
25554;DHT22;13446;50.926;5.332;2023-05-14T13:00:05;27.20;53.50
25554;DHT22;13446;50.926;5.332;2023-05-14T13:02:32;28.00;54.10
25554;DHT22;13446;50.926;5.332;2023-05-14T13:04:58;29.50;52.00
25554;DHT22;13446;50.926;5.332;2023-05-14T13:07:23;30.70;48.80
25554;DHT22;13446;50.926;5.332;2023-05-14T13:09:49;31.40;47.40
25554;DHT22;13446;50.926;5.332;2023-05-14T13:12:14;31.30;45.80
25554;DHT22;13446;50.926;5.332;2023-05-14T13:14:40;30.70;47.20
25554;DHT22;13446;50.926;5.332;2023-05-14T13:17:05;30.40;44.60
25554;DHT22;13446;50.926;5.332;2023-05-14T13:19:32;29.90;46.20
25554;DHT22;13446;50.926;5.332;2023-05-14T13:21:57;29.60;48.60
25554;DHT22;13446;50.926;5.332;2023-05-14T13:24:23;29.40;50.10
25554;DHT22;13446;50.926;5.332;2023-05-14T13:26:49;28.90;50.60
25554;DHT22;13446;50.926;5.332;2023-05-14T13:29:15;28.90;51.30
25554;DHT22;13446;50.926;5.332;2023-05-14T13:31:41;28.90;51.80
25554;DHT22;13446;50.926;5.332;2023-05-14T13:34:06;28.60;52.60
25554;DHT22;13446;50.926;5.332;2023-05-14T13:36:33;28.70;53.50
25554;DHT22;13446;50.926;5.332;2023-05-14T13:39:06;28.60;51.00
25554;DHT22;13446;50.926;5.332;2023-05-14T13:41:32;28.40;49.70
25554;DHT22;13446;50.926;5.332;2023-05-14T13:44:02;27.90;50.00
25554;DHT22;13446;50.926;5.332;2023-05-14T13:46:28;27.70;51.30
25554;DHT22;13446;50.926;5.332;2023-05-14T13:48:53;27.50;51.40
25554;DHT22;13446;50.926;5.332;2023-05-14T13:51:19;27.70;52.00
25554;DHT22;13446;50.926;5.332;2023-05-14T13:53:44;27.50;52.30
25554;DHT22;13446;50.926;5.332;2023-05-14T13:56:10;27.60;53.50
25554;DHT22;13446;50.926;5.332;2023-05-14T13:58:36;27.90;53.10
25554;DHT22;13446;50.926;5.332;2023-05-14T14:01:04;27.80;51.80
25554;DHT22;13446;50.926;5.332;2023-05-14T14:03:30;27.90;51.60
25554;DHT22;13446;50.926;5.332;2023-05-14T14:05:55;28.00;51.10
25554;DHT22;13446;50.926;5.332;2023-05-14T14:08:21;28.00;51.40
25554;DHT22;13446;50.926;5.332;2023-05-14T14:10:46;28.00;50.90
25554;DHT22;13446;50.926;5.332;2023-05-14T14:13:12;27.80;48.10
25554;DHT22;13446;50.926;5.332;2023-05-14T14:15:39;27.80;49.40
25554;DHT22;13446;50.926;5.332;2023-05-14T14:18:05;27.90;49.00
25554;DHT22;13446;50.926;5.332;2023-05-14T14:20:31;27.80;49.30
25554;DHT22;13446;50.926;5.332;2023-05-14T14:22:57;27.90;49.70
25554;DHT22;13446;50.926;5.332;2023-05-14T14:25:22;28.00;49.80
25554;DHT22;13446;50.926;5.332;2023-05-14T14:27:48;27.80;50.10
25554;DHT22;13446;50.926;5.332;2023-05-14T14:30:15;27.80;50.50
25554;DHT22;13446;50.926;5.332;2023-05-14T14:32:47;27.90;50.50
25554;DHT22;13446;50.926;5.332;2023-05-14T14:35:13;28.00;49.60
25554;DHT22;13446;50.926;5.332;2023-05-14T14:37:39;27.60;49.60
25554;DHT22;13446;50.926;5.332;2023-05-14T14:40:06;27.50;49.00
25554;DHT22;13446;50.926;5.332;2023-05-14T14:42:33;27.50;49.70
25554;DHT22;13446;50.926;5.332;2023-05-14T14:44:58;27.60;50.60
25554;DHT22;13446;50.926;5.332;2023-05-14T14:47:24;27.90;49.80
25554;DHT22;13446;50.926;5.332;2023-05-14T14:49:50;27.90;49.30
25554;DHT22;13446;50.926;5.332;2023-05-14T14:52:15;27.90;49.60
25554;DHT22;13446;50.926;5.332;2023-05-14T14:54:41;27.80;49.40
25554;DHT22;13446;50.926;5.332;2023-05-14T14:57:07;27.60;50.00
25554;DHT22;13446;50.926;5.332;2023-05-14T14:59:33;27.40;49.30
25554;DHT22;13446;50.926;5.332;2023-05-14T15:01:59;27.50;49.40
25554;DHT22;13446;50.926;5.332;2023-05-14T15:04:25;27.70;49.90
25554;DHT22;13446;50.926;5.332;2023-05-14T15:06:50;27.90;49.90
25554;DHT22;13446;50.926;5.332;2023-05-14T15:09:16;27.90;48.60
25554;DHT22;13446;50.926;5.332;2023-05-14T15:11:42;27.80;49.70
25554;DHT22;13446;50.926;5.332;2023-05-14T15:14:07;27.90;49.10
25554;DHT22;13446;50.926;5.332;2023-05-14T15:16:33;27.80;49.30
25554;DHT22;13446;50.926;5.332;2023-05-14T15:18:59;27.70;49.50
25554;DHT22;13446;50.926;5.332;2023-05-14T15:21:24;27.60;49.60
25554;DHT22;13446;50.926;5.332;2023-05-14T15:23:50;27.60;49.20
25554;DHT22;13446;50.926;5.332;2023-05-14T15:26:15;27.80;49.90
25554;DHT22;13446;50.926;5.332;2023-05-14T15:28:41;27.80;49.70
25554;DHT22;13446;50.926;5.332;2023-05-14T15:31:06;27.80;50.20
25554;DHT22;13446;50.926;5.332;2023-05-14T15:33:32;27.70;50.20